Terminal Aerodrome Forecast
Issued by NWS

Home | Current Version | Previous Version | Text Only | Print | Product List | Glossary On
Versions: 1 2 3 4 5 6 7 8 9 10 11 12
544
FTPA31 PHFO 121120
TAFHOG
TAF
PHOG 121120Z 1212/1312 06010KT P6SM FEW045
      TEMPO 1212/1216 07012G18KT
     FM122000 06015G22KT P6SM FEW035 SCT050
     FM130600 06010KT P6SM FEW050=

USA.gov is the U.S. government's official web portal to all federal, state and local government web resources and services.